sensor_id;sensor_type;location;lat;lon;timestamp;pressure;altitude;pressure_sealevel;temperature;humidity
26112;BME280;13829;48.990;8.346;2022-08-23T00:02:11;100199.69;;;18.94;70.02
26112;BME280;13829;48.990;8.346;2022-08-23T00:04:41;100204.28;;;18.88;70.01
26112;BME280;13829;48.990;8.346;2022-08-23T00:07:11;100200.03;;;18.83;70.26
26112;BME280;13829;48.990;8.346;2022-08-23T00:09:38;100201.63;;;18.90;69.74
26112;BME280;13829;48.990;8.346;2022-08-23T00:12:13;100197.16;;;18.90;69.66
26112;BME280;13829;48.990;8.346;2022-08-23T00:14:45;100200.69;;;18.89;69.70
26112;BME280;13829;48.990;8.346;2022-08-23T00:17:13;100206.34;;;18.80;69.67
26112;BME280;13829;48.990;8.346;2022-08-23T00:19:41;100208.34;;;18.73;70.91
26112;BME280;13829;48.990;8.346;2022-08-23T00:22:08;100204.00;;;18.69;71.40
26112;BME280;13829;48.990;8.346;2022-08-23T00:24:37;100202.25;;;18.68;71.73
26112;BME280;13829;48.990;8.346;2022-08-23T00:27:09;100200.59;;;18.64;71.37
26112;BME280;13829;48.990;8.346;2022-08-23T00:29:41;100204.97;;;18.67;71.73
26112;BME280;13829;48.990;8.346;2022-08-23T00:32:14;100205.56;;;18.77;72.32
26112;BME280;13829;48.990;8.346;2022-08-23T00:34:42;100202.16;;;18.71;72.18
26112;BME280;13829;48.990;8.346;2022-08-23T00:37:10;100204.50;;;18.54;73.36
26112;BME280;13829;48.990;8.346;2022-08-23T00:39:39;100195.47;;;18.58;73.74
26112;BME280;13829;48.990;8.346;2022-08-23T00:42:11;100201.25;;;18.72;73.88
26112;BME280;13829;48.990;8.346;2022-08-23T00:44:52;100207.75;;;18.64;74.55
26112;BME280;13829;48.990;8.346;2022-08-23T00:47:39;100200.72;;;18.61;75.18
26112;BME280;13829;48.990;8.346;2022-08-23T00:50:20;100215.34;;;18.76;74.76
26112;BME280;13829;48.990;8.346;2022-08-23T00:52:59;100202.16;;;18.71;75.43
26112;BME280;13829;48.990;8.346;2022-08-23T00:55:29;100212.03;;;18.68;76.11
26112;BME280;13829;48.990;8.346;2022-08-23T00:57:58;100216.88;;;18.55;76.53
26112;BME280;13829;48.990;8.346;2022-08-23T01:00:26;100213.31;;;18.56;77.08
26112;BME280;13829;48.990;8.346;2022-08-23T01:02:54;100219.88;;;18.44;77.66
26112;BME280;13829;48.990;8.346;2022-08-23T01:05:29;100216.28;;;18.45;77.86
26112;BME280;13829;48.990;8.346;2022-08-23T01:08:00;100214.28;;;18.53;76.66
26112;BME280;13829;48.990;8.346;2022-08-23T01:10:32;100212.94;;;18.38;77.03
26112;BME280;13829;48.990;8.346;2022-08-23T01:13:10;100212.22;;;18.33;77.30
26112;BME280;13829;48.990;8.346;2022-08-23T01:15:45;100210.47;;;18.32;77.16
26112;BME280;13829;48.990;8.346;2022-08-23T01:18:18;100213.31;;;18.26;77.52
26112;BME280;13829;48.990;8.346;2022-08-23T01:20:55;100214.06;;;18.31;76.71
26112;BME280;13829;48.990;8.346;2022-08-23T01:23:35;100214.34;;;18.22;75.85
26112;BME280;13829;48.990;8.346;2022-08-23T01:26:06;100208.09;;;18.23;75.50
26112;BME280;13829;48.990;8.346;2022-08-23T01:28:34;100208.84;;;18.28;74.63
26112;BME280;13829;48.990;8.346;2022-08-23T01:31:02;100218.25;;;18.08;75.40
26112;BME280;13829;48.990;8.346;2022-08-23T01:33:30;100214.78;;;18.06;75.71
26112;BME280;13829;48.990;8.346;2022-08-23T01:35:58;100218.53;;;17.99;76.06
26112;BME280;13829;48.990;8.346;2022-08-23T01:38:25;100217.84;;;17.91;76.53
26112;BME280;13829;48.990;8.346;2022-08-23T01:40:53;100215.44;;;17.82;77.28
26112;BME280;13829;48.990;8.346;2022-08-23T01:43:22;100212.88;;;17.79;77.84
26112;BME280;13829;48.990;8.346;2022-08-23T01:45:51;100213.63;;;17.84;77.97
26112;BME280;13829;48.990;8.346;2022-08-23T01:48:20;100219.56;;;17.95;75.99
26112;BME280;13829;48.990;8.346;2022-08-23T01:50:48;100220.81;;;17.80;76.60
26112;BME280;13829;48.990;8.346;2022-08-23T01:53:15;100223.69;;;17.72;77.17
26112;BME280;13829;48.990;8.346;2022-08-23T01:55:42;100212.38;;;17.64;77.55
26112;BME280;13829;48.990;8.346;2022-08-23T01:58:11;100211.69;;;17.57;78.32
26112;BME280;13829;48.990;8.346;2022-08-23T02:00:41;100218.50;;;17.68;78.50
26112;BME280;13829;48.990;8.346;2022-08-23T02:03:09;100220.78;;;17.82;77.72
26112;BME280;13829;48.990;8.346;2022-08-23T02:05:38;100218.09;;;17.82;77.10
26112;BME280;13829;48.990;8.346;2022-08-23T02:08:07;100214.72;;;17.76;77.44
26112;BME280;13829;48.990;8.346;2022-08-23T02:10:52;100218.78;;;17.90;76.64
26112;BME280;13829;48.990;8.346;2022-08-23T02:13:21;100224.88;;;17.95;75.79
26112;BME280;13829;48.990;8.346;2022-08-23T02:15:49;100231.84;;;17.66;76.77
26112;BME280;13829;48.990;8.346;2022-08-23T02:18:18;100232.00;;;17.60;77.67
26112;BME280;13829;48.990;8.346;2022-08-23T02:20:48;100228.50;;;17.58;77.44
26112;BME280;13829;48.990;8.346;2022-08-23T02:23:18;100238.53;;;17.47;77.86
26112;BME280;13829;48.990;8.346;2022-08-23T02:25:45;100247.22;;;17.55;78.38
26112;BME280;13829;48.990;8.346;2022-08-23T02:28:12;100238.53;;;17.47;78.35
26112;BME280;13829;48.990;8.346;2022-08-23T02:30:44;100234.31;;;17.39;78.22
26112;BME280;13829;48.990;8.346;2022-08-23T02:33:11;100243.00;;;17.46;78.92
26112;BME280;13829;48.990;8.346;2022-08-23T02:35:39;100239.28;;;17.52;78.27
26112;BME280;13829;48.990;8.346;2022-08-23T02:38:09;100246.41;;;17.51;78.31
26112;BME280;13829;48.990;8.346;2022-08-23T02:40:38;100251.22;;;17.37;78.62
26112;BME280;13829;48.990;8.346;2022-08-23T02:43:05;100251.38;;;17.31;78.94
26112;BME280;13829;48.990;8.346;2022-08-23T02:45:33;100256.81;;;17.26;79.41
26112;BME280;13829;48.990;8.346;2022-08-23T02:48:02;100260.44;;;17.22;79.69
26112;BME280;13829;48.990;8.346;2022-08-23T02:50:29;100265.72;;;17.23;79.67
26112;BME280;13829;48.990;8.346;2022-08-23T02:52:57;100259.69;;;17.17;80.08
26112;BME280;13829;48.990;8.346;2022-08-23T02:55:24;100259.84;;;17.10;80.40
26112;BME280;13829;48.990;8.346;2022-08-23T02:57:51;100263.31;;;17.12;80.35
26112;BME280;13829;48.990;8.346;2022-08-23T03:00:19;100261.50;;;17.15;80.54
26112;BME280;13829;48.990;8.346;2022-08-23T03:02:47;100261.59;;;17.11;80.92
26112;BME280;13829;48.990;8.346;2022-08-23T03:05:16;100268.47;;;17.20;80.43
26112;BME280;13829;48.990;8.346;2022-08-23T03:07:43;100272.13;;;17.15;80.07
26112;BME280;13829;48.990;8.346;2022-08-23T03:10:11;100272.63;;;16.94;80.39
26112;BME280;13829;48.990;8.346;2022-08-23T03:12:38;100269.00;;;16.97;80.90
26112;BME280;13829;48.990;8.346;2022-08-23T03:15:07;100268.03;;;17.01;80.88
26112;BME280;13829;48.990;8.346;2022-08-23T03:17:34;100270.72;;;17.01;80.43
26112;BME280;13829;48.990;8.346;2022-08-23T03:20:03;100272.50;;;16.99;80.31
26112;BME280;13829;48.990;8.346;2022-08-23T03:22:31;100271.59;;;17.00;80.21
26112;BME280;13829;48.990;8.346;2022-08-23T03:24:58;100275.31;;;16.93;80.86
26112;BME280;13829;48.990;8.346;2022-08-23T03:27:26;100269.16;;;16.91;80.44
26112;BME280;13829;48.990;8.346;2022-08-23T03:29:53;100280.69;;;16.88;80.27
26112;BME280;13829;48.990;8.346;2022-08-23T03:32:20;100284.34;;;16.84;80.13
26112;BME280;13829;48.990;8.346;2022-08-23T03:34:47;100289.59;;;16.87;79.90
26112;BME280;13829;48.990;8.346;2022-08-23T03:37:14;100282.69;;;16.78;80.50
26112;BME280;13829;48.990;8.346;2022-08-23T03:39:42;100284.19;;;16.92;80.32
26112;BME280;13829;48.990;8.346;2022-08-23T03:42:09;100288.06;;;16.75;80.78
26112;BME280;13829;48.990;8.346;2022-08-23T03:44:37;100285.50;;;16.72;81.14
26112;BME280;13829;48.990;8.346;2022-08-23T03:47:04;100280.31;;;16.66;81.11
26112;BME280;13829;48.990;8.346;2022-08-23T03:49:32;100287.25;;;16.73;81.13
26112;BME280;13829;48.990;8.346;2022-08-23T03:51:59;100289.06;;;16.71;80.83
26112;BME280;13829;48.990;8.346;2022-08-23T03:54:26;100285.63;;;16.66;81.43
26112;BME280;13829;48.990;8.346;2022-08-23T03:56:59;100296.94;;;16.74;80.63
26112;BME280;13829;48.990;8.346;2022-08-23T03:59:29;100292.81;;;16.61;81.38
26112;BME280;13829;48.990;8.346;2022-08-23T04:01:57;100295.59;;;16.55;81.70
26112;BME280;13829;48.990;8.346;2022-08-23T04:04:25;100303.63;;;16.52;81.65
26112;BME280;13829;48.990;8.346;2022-08-23T04:06:52;100310.81;;;16.46;82.24
26112;BME280;13829;48.990;8.346;2022-08-23T04:09:20;100305.31;;;16.56;81.94
26112;BME280;13829;48.990;8.346;2022-08-23T04:11:47;100307.16;;;16.52;81.93
26112;BME280;13829;48.990;8.346;2022-08-23T04:14:17;100309.81;;;16.52;81.83
26112;BME280;13829;48.990;8.346;2022-08-23T04:16:44;100313.47;;;16.46;82.12
26112;BME280;13829;48.990;8.346;2022-08-23T04:19:13;100314.31;;;16.49;82.27
26112;BME280;13829;48.990;8.346;2022-08-23T04:21:45;100317.75;;;16.54;81.93
26112;BME280;13829;48.990;8.346;2022-08-23T04:24:13;100316.00;;;16.53;81.43
26112;BME280;13829;48.990;8.346;2022-08-23T04:26:41;100314.34;;;16.47;81.65
26112;BME280;13829;48.990;8.346;2022-08-23T04:29:08;100312.50;;;16.51;81.93
26112;BME280;13829;48.990;8.346;2022-08-23T04:31:38;100317.81;;;16.51;81.96
26112;BME280;13829;48.990;8.346;2022-08-23T04:34:05;100319.66;;;16.47;82.20
26112;BME280;13829;48.990;8.346;2022-08-23T04:36:38;100324.06;;;16.48;82.21
26112;BME280;13829;48.990;8.346;2022-08-23T04:39:05;100326.78;;;16.45;82.32
26112;BME280;13829;48.990;8.346;2022-08-23T04:41:33;100331.25;;;16.43;82.58
26112;BME280;13829;48.990;8.346;2022-08-23T04:44:18;100341.06;;;16.39;83.24
26112;BME280;13829;48.990;8.346;2022-08-23T04:46:46;100340.03;;;16.45;83.05
26112;BME280;13829;48.990;8.346;2022-08-23T04:49:14;100333.75;;;16.51;83.13
26112;BME280;13829;48.990;8.346;2022-08-23T04:51:41;100330.16;;;16.53;83.09
26112;BME280;13829;48.990;8.346;2022-08-23T04:54:08;100343.44;;;16.53;83.05
26112;BME280;13829;48.990;8.346;2022-08-23T04:56:36;100341.63;;;16.54;83.40
26112;BME280;13829;48.990;8.346;2022-08-23T04:59:04;100350.47;;;16.56;83.53
26112;BME280;13829;48.990;8.346;2022-08-23T05:01:32;100354.72;;;16.63;83.45
26112;BME280;13829;48.990;8.346;2022-08-23T05:04:01;100350.38;;;16.59;83.82
26112;BME280;13829;48.990;8.346;2022-08-23T05:06:29;100353.88;;;16.61;84.24
26112;BME280;13829;48.990;8.346;2022-08-23T05:08:56;100355.53;;;16.67;84.84
26112;BME280;13829;48.990;8.346;2022-08-23T05:11:23;100366.06;;;16.71;85.35
26112;BME280;13829;48.990;8.346;2022-08-23T05:13:51;100362.22;;;16.86;84.43
26112;BME280;13829;48.990;8.346;2022-08-23T05:16:17;100371.84;;;16.92;84.03
26112;BME280;13829;48.990;8.346;2022-08-23T05:18:45;100364.66;;;16.97;83.75
26112;BME280;13829;48.990;8.346;2022-08-23T05:21:17;100376.09;;;17.01;83.88
26112;BME280;13829;48.990;8.346;2022-08-23T05:23:44;100379.41;;;17.10;83.25
26112;BME280;13829;48.990;8.346;2022-08-23T05:26:12;100382.63;;;17.25;82.24
26112;BME280;13829;48.990;8.346;2022-08-23T05:28:41;100389.59;;;17.31;81.86
26112;BME280;13829;48.990;8.346;2022-08-23T05:31:13;100390.53;;;17.28;82.41
26112;BME280;13829;48.990;8.346;2022-08-23T05:33:42;100385.09;;;17.34;83.21
26112;BME280;13829;48.990;8.346;2022-08-23T05:36:12;100388.41;;;17.42;83.25
26112;BME280;13829;48.990;8.346;2022-08-23T05:38:41;100396.16;;;17.52;84.16
26112;BME280;13829;48.990;8.346;2022-08-23T05:41:09;100395.06;;;17.62;84.17
26112;BME280;13829;48.990;8.346;2022-08-23T05:43:36;100393.97;;;17.69;84.27
26112;BME280;13829;48.990;8.346;2022-08-23T05:46:07;100398.16;;;17.80;84.00
26112;BME280;13829;48.990;8.346;2022-08-23T05:48:37;100398.09;;;17.83;83.98
26112;BME280;13829;48.990;8.346;2022-08-23T05:51:11;100405.88;;;17.90;84.06
26112;BME280;13829;48.990;8.346;2022-08-23T05:53:41;100415.34;;;18.02;83.63
26112;BME280;13829;48.990;8.346;2022-08-23T05:56:14;100409.81;;;18.12;83.54
26112;BME280;13829;48.990;8.346;2022-08-23T05:58:42;100409.44;;;18.25;82.74
26112;BME280;13829;48.990;8.346;2022-08-23T06:01:10;100420.75;;;18.34;82.67
26112;BME280;13829;48.990;8.346;2022-08-23T06:03:37;100418.78;;;18.42;83.25
26112;BME280;13829;48.990;8.346;2022-08-23T06:06:05;100422.97;;;18.51;82.93
26112;BME280;13829;48.990;8.346;2022-08-23T06:08:33;100418.22;;;18.62;82.32
26112;BME280;13829;48.990;8.346;2022-08-23T06:11:06;100418.78;;;18.73;81.56
26112;BME280;13829;48.990;8.346;2022-08-23T06:13:38;100418.34;;;18.89;80.77
26112;BME280;13829;48.990;8.346;2022-08-23T06:16:06;100422.44;;;19.01;79.65
26112;BME280;13829;48.990;8.346;2022-08-23T06:18:33;100423.88;;;19.13;78.31
26112;BME280;13829;48.990;8.346;2022-08-23T06:21:03;100421.84;;;19.21;77.47
26112;BME280;13829;48.990;8.346;2022-08-23T06:23:31;100415.31;;;19.31;76.59
26112;BME280;13829;48.990;8.346;2022-08-23T06:25:58;100422.22;;;19.38;75.26
26112;BME280;13829;48.990;8.346;2022-08-23T06:28:28;100428.16;;;19.47;73.96
26112;BME280;13829;48.990;8.346;2022-08-23T06:30:57;100419.69;;;19.62;73.20
26112;BME280;13829;48.990;8.346;2022-08-23T06:33:24;100429.94;;;19.75;72.79
26112;BME280;13829;48.990;8.346;2022-08-23T06:36:01;100424.34;;;19.84;71.93
26112;BME280;13829;48.990;8.346;2022-08-23T06:38:30;100427.94;;;20.10;71.80
26112;BME280;13829;48.990;8.346;2022-08-23T06:41:02;100426.69;;;20.20;69.50
26112;BME280;13829;48.990;8.346;2022-08-23T06:43:31;100433.34;;;20.33;70.08
26112;BME280;13829;48.990;8.346;2022-08-23T06:46:08;100437.59;;;20.39;69.97
26112;BME280;13829;48.990;8.346;2022-08-23T06:48:35;100448.81;;;20.49;68.98
26112;BME280;13829;48.990;8.346;2022-08-23T06:51:10;100438.41;;;20.66;67.58
26112;BME280;13829;48.990;8.346;2022-08-23T06:53:37;100439.41;;;21.13;66.10
26112;BME280;13829;48.990;8.346;2022-08-23T06:56:05;100436.34;;;21.90;63.38
26112;BME280;13829;48.990;8.346;2022-08-23T06:58:34;100427.19;;;23.37;58.84
26112;BME280;13829;48.990;8.346;2022-08-23T07:01:15;100427.00;;;25.32;54.08
26112;BME280;13829;48.990;8.346;2022-08-23T07:03:44;100428.13;;;27.10;49.29
26112;BME280;13829;48.990;8.346;2022-08-23T07:06:11;100426.91;;;28.51;45.10
26112;BME280;13829;48.990;8.346;2022-08-23T07:08:37;100423.63;;;29.85;42.05
26112;BME280;13829;48.990;8.346;2022-08-23T07:11:05;100422.88;;;30.77;38.24
26112;BME280;13829;48.990;8.346;2022-08-23T07:13:33;100431.03;;;31.33;36.45
26112;BME280;13829;48.990;8.346;2022-08-23T07:16:00;100424.78;;;32.30;34.58
26112;BME280;13829;48.990;8.346;2022-08-23T07:18:28;100424.34;;;33.18;32.48
26112;BME280;13829;48.990;8.346;2022-08-23T07:20:56;100437.97;;;33.69;31.10
26112;BME280;13829;48.990;8.346;2022-08-23T07:23:23;100431.56;;;33.99;30.25
26112;BME280;13829;48.990;8.346;2022-08-23T07:25:51;100431.97;;;34.34;30.03
26112;BME280;13829;48.990;8.346;2022-08-23T07:28:19;100439.50;;;34.59;29.24
26112;BME280;13829;48.990;8.346;2022-08-23T07:30:47;100438.50;;;34.60;29.84
26112;BME280;13829;48.990;8.346;2022-08-23T07:33:14;100442.44;;;34.95;28.86
26112;BME280;13829;48.990;8.346;2022-08-23T07:35:47;100441.09;;;35.37;28.54
26112;BME280;13829;48.990;8.346;2022-08-23T07:38:14;100438.88;;;35.69;28.12
26112;BME280;13829;48.990;8.346;2022-08-23T07:40:41;100436.38;;;35.57;27.58
26112;BME280;13829;48.990;8.346;2022-08-23T07:43:08;100441.84;;;35.57;27.87
26112;BME280;13829;48.990;8.346;2022-08-23T07:45:39;100447.88;;;35.61;28.67
26112;BME280;13829;48.990;8.346;2022-08-23T07:48:09;100449.56;;;35.62;27.46
26112;BME280;13829;48.990;8.346;2022-08-23T07:50:36;100448.00;;;35.59;27.37
26112;BME280;13829;48.990;8.346;2022-08-23T07:53:04;100447.91;;;35.51;27.65
26112;BME280;13829;48.990;8.346;2022-08-23T07:55:31;100443.41;;;35.04;27.83
26112;BME280;13829;48.990;8.346;2022-08-23T07:57:59;100450.22;;;34.90;28.35
26112;BME280;13829;48.990;8.346;2022-08-23T08:00:26;100450.31;;;34.99;28.25
26112;BME280;13829;48.990;8.346;2022-08-23T08:02:53;100450.31;;;34.99;28.00
26112;BME280;13829;48.990;8.346;2022-08-23T08:05:22;100451.56;;;34.67;28.49
26112;BME280;13829;48.990;8.346;2022-08-23T08:07:49;100454.44;;;34.65;28.58
26112;BME280;13829;48.990;8.346;2022-08-23T08:10:16;100457.19;;;34.65;28.81
26112;BME280;13829;48.990;8.346;2022-08-23T08:12:43;100455.69;;;34.90;29.21
26112;BME280;13829;48.990;8.346;2022-08-23T08:15:10;100454.28;;;34.76;28.95
26112;BME280;13829;48.990;8.346;2022-08-23T08:17:37;100451.91;;;34.44;29.51
26112;BME280;13829;48.990;8.346;2022-08-23T08:20:06;100458.38;;;34.33;28.85
26112;BME280;13829;48.990;8.346;2022-08-23T08:22:35;100460.97;;;33.86;28.78
26112;BME280;13829;48.990;8.346;2022-08-23T08:25:03;100461.63;;;33.48;30.10
26112;BME280;13829;48.990;8.346;2022-08-23T08:27:31;100462.31;;;33.41;29.82
26112;BME280;13829;48.990;8.346;2022-08-23T08:29:58;100467.97;;;33.18;30.10
26112;BME280;13829;48.990;8.346;2022-08-23T08:32:25;100462.47;;;33.08;30.14
26112;BME280;13829;48.990;8.346;2022-08-23T08:34:52;100473.28;;;32.89;31.86
26112;BME280;13829;48.990;8.346;2022-08-23T08:37:19;100460.31;;;32.81;31.51
26112;BME280;13829;48.990;8.346;2022-08-23T08:39:47;100469.44;;;32.91;31.87
26112;BME280;13829;48.990;8.346;2022-08-23T08:42:37;100468.16;;;32.53;30.91
26112;BME280;13829;48.990;8.346;2022-08-23T08:45:14;100464.97;;;32.48;32.56
26112;BME280;13829;48.990;8.346;2022-08-23T08:47:48;100472.31;;;32.15;31.69
26112;BME280;13829;48.990;8.346;2022-08-23T08:50:21;100470.50;;;31.60;32.63
26112;BME280;13829;48.990;8.346;2022-08-23T08:52:58;100476.00;;;31.15;33.40
26112;BME280;13829;48.990;8.346;2022-08-23T08:55:33;100468.09;;;31.23;33.64
26112;BME280;13829;48.990;8.346;2022-08-23T08:58:05;100475.91;;;31.16;35.59
26112;BME280;13829;48.990;8.346;2022-08-23T09:00:36;100473.50;;;30.78;34.56
26112;BME280;13829;48.990;8.346;2022-08-23T09:03:10;100467.53;;;30.61;34.52
26112;BME280;13829;48.990;8.346;2022-08-23T09:05:51;100462.88;;;30.39;34.76
26112;BME280;13829;48.990;8.346;2022-08-23T09:08:48;100469.63;;;30.22;34.78
26112;BME280;13829;48.990;8.346;2022-08-23T09:11:35;100480.00;;;30.28;36.54
26112;BME280;13829;48.990;8.346;2022-08-23T09:14:32;100469.63;;;30.22;35.38
26112;BME280;13829;48.990;8.346;2022-08-23T09:17:11;100471.31;;;30.12;35.34
26112;BME280;13829;48.990;8.346;2022-08-23T09:19:42;100466.84;;;29.99;35.69
26112;BME280;13829;48.990;8.346;2022-08-23T09:22:15;100464.75;;;29.78;36.58
26112;BME280;13829;48.990;8.346;2022-08-23T09:24:43;100458.22;;;29.57;36.46
26112;BME280;13829;48.990;8.346;2022-08-23T09:27:12;100465.19;;;29.48;36.51
26112;BME280;13829;48.990;8.346;2022-08-23T09:29:53;100469.34;;;29.28;38.24
26112;BME280;13829;48.990;8.346;2022-08-23T09:32:33;100468.81;;;28.97;37.69
26112;BME280;13829;48.990;8.346;2022-08-23T09:35:12;100466.66;;;28.89;38.39
26112;BME280;13829;48.990;8.346;2022-08-23T09:38:01;100470.78;;;28.95;38.72
26112;BME280;13829;48.990;8.346;2022-08-23T09:40:35;100469.72;;;28.85;37.88
26112;BME280;13829;48.990;8.346;2022-08-23T09:43:12;100469.75;;;28.57;38.22
26112;BME280;13829;48.990;8.346;2022-08-23T09:45:51;100475.28;;;28.43;38.07
26112;BME280;13829;48.990;8.346;2022-08-23T09:48:35;100469.66;;;28.46;39.06
26112;BME280;13829;48.990;8.346;2022-08-23T09:51:14;100468.31;;;28.26;38.63
26112;BME280;13829;48.990;8.346;2022-08-23T09:53:47;100463.31;;;28.20;39.26
26112;BME280;13829;48.990;8.346;2022-08-23T09:56:22;100468.44;;;28.37;41.84
26112;BME280;13829;48.990;8.346;2022-08-23T09:58:52;100467.59;;;28.37;39.55
26112;BME280;13829;48.990;8.346;2022-08-23T10:01:23;100465.63;;;28.39;39.57
26112;BME280;13829;48.990;8.346;2022-08-23T10:04:10;100462.47;;;28.32;39.64
26112;BME280;13829;48.990;8.346;2022-08-23T10:06:39;100454.47;;;28.18;39.61
26112;BME280;13829;48.990;8.346;2022-08-23T10:09:08;100456.34;;;28.03;39.67
26112;BME280;13829;48.990;8.346;2022-08-23T10:11:40;100448.88;;;27.93;39.99
26112;BME280;13829;48.990;8.346;2022-08-23T10:14:12;100451.09;;;27.87;38.91
26112;BME280;13829;48.990;8.346;2022-08-23T10:16:51;100447.50;;;27.73;39.62
26112;BME280;13829;48.990;8.346;2022-08-23T10:19:29;100446.97;;;27.81;40.14
26112;BME280;13829;48.990;8.346;2022-08-23T10:22:10;100434.28;;;27.69;40.56
26112;BME280;13829;48.990;8.346;2022-08-23T10:24:46;100426.38;;;27.65;40.45
26112;BME280;13829;48.990;8.346;2022-08-23T10:27:28;100423.47;;;27.69;41.40
26112;BME280;13829;48.990;8.346;2022-08-23T10:30:21;100417.41;;;27.65;40.61
26112;BME280;13829;48.990;8.346;2022-08-23T10:33:03;100423.75;;;27.64;39.98
26112;BME280;13829;48.990;8.346;2022-08-23T10:35:43;100418.78;;;27.58;39.57
26112;BME280;13829;48.990;8.346;2022-08-23T10:38:35;100421.13;;;27.49;39.95
26112;BME280;13829;48.990;8.346;2022-08-23T10:41:19;100417.66;;;27.47;40.08
26112;BME280;13829;48.990;8.346;2022-08-23T10:44:01;100416.78;;;27.47;40.33
26112;BME280;13829;48.990;8.346;2022-08-23T10:46:43;100412.97;;;27.64;41.21
26112;BME280;13829;48.990;8.346;2022-08-23T10:49:14;100409.28;;;27.65;40.96
26112;BME280;13829;48.990;8.346;2022-08-23T10:51:46;100402.38;;;27.61;41.21
26112;BME280;13829;48.990;8.346;2022-08-23T10:54:17;100403.34;;;27.60;40.86
26112;BME280;13829;48.990;8.346;2022-08-23T10:56:55;100400.44;;;27.63;40.67
26112;BME280;13829;48.990;8.346;2022-08-23T10:59:25;100399.44;;;27.64;41.05
26112;BME280;13829;48.990;8.346;2022-08-23T11:02:00;100397.63;;;27.64;40.66
26112;BME280;13829;48.990;8.346;2022-08-23T11:04:50;100397.53;;;27.66;39.00
26112;BME280;13829;48.990;8.346;2022-08-23T11:07:25;100397.22;;;27.71;38.24
26112;BME280;13829;48.990;8.346;2022-08-23T11:10:05;100395.31;;;27.86;38.17
26112;BME280;13829;48.990;8.346;2022-08-23T11:12:35;100389.59;;;27.90;39.04
26112;BME280;13829;48.990;8.346;2022-08-23T11:15:38;100383.88;;;27.95;36.99
26112;BME280;13829;48.990;8.346;2022-08-23T11:18:11;100379.84;;;27.88;38.89
26112;BME280;13829;48.990;8.346;2022-08-23T11:21:11;100390.13;;;27.82;38.74
26112;BME280;13829;48.990;8.346;2022-08-23T11:24:48;100377.22;;;27.73;38.68
26112;BME280;13829;48.990;8.346;2022-08-23T11:27:33;100377.09;;;27.62;39.27
26112;BME280;13829;48.990;8.346;2022-08-23T11:30:43;100382.09;;;27.68;35.81
26112;BME280;13829;48.990;8.346;2022-08-23T11:33:21;100380.41;;;27.93;37.34
26112;BME280;13829;48.990;8.346;2022-08-23T11:35:51;100378.25;;;27.98;35.42
26112;BME280;13829;48.990;8.346;2022-08-23T11:39:02;100375.53;;;27.98;37.30
26112;BME280;13829;48.990;8.346;2022-08-23T11:41:32;100371.22;;;27.95;35.04
26112;BME280;13829;48.990;8.346;2022-08-23T11:44:25;100371.38;;;28.07;36.58
26112;BME280;13829;48.990;8.346;2022-08-23T11:47:00;100370.09;;;28.12;36.17
26112;BME280;13829;48.990;8.346;2022-08-23T11:50:01;100378.22;;;28.12;35.13
26112;BME280;13829;48.990;8.346;2022-08-23T11:53:03;100371.09;;;27.97;35.89
26112;BME280;13829;48.990;8.346;2022-08-23T11:56:12;100375.94;;;28.06;32.56
26112;BME280;13829;48.990;8.346;2022-08-23T11:59:21;100368.38;;;28.11;31.76
26112;BME280;13829;48.990;8.346;2022-08-23T12:01:55;100364.69;;;28.25;31.79
26112;BME280;13829;48.990;8.346;2022-08-23T12:04:35;100367.28;;;28.27;31.24
26112;BME280;13829;48.990;8.346;2022-08-23T12:07:05;100365.56;;;28.26;30.99
26112;BME280;13829;48.990;8.346;2022-08-23T12:09:55;100362.09;;;28.24;31.90
26112;BME280;13829;48.990;8.346;2022-08-23T12:12:32;100358.19;;;28.15;30.86
26112;BME280;13829;48.990;8.346;2022-08-23T12:15:05;100357.44;;;28.26;29.75
26112;BME280;13829;48.990;8.346;2022-08-23T12:18:13;100350.22;;;28.13;31.88
26112;BME280;13829;48.990;8.346;2022-08-23T12:20:42;100346.50;;;28.14;28.26
26112;BME280;13829;48.990;8.346;2022-08-23T12:23:19;100343.06;;;28.38;27.01
26112;BME280;13829;48.990;8.346;2022-08-23T12:26:09;100350.41;;;28.49;26.33
26112;BME280;13829;48.990;8.346;2022-08-23T12:28:45;100339.16;;;28.68;25.46
26112;BME280;13829;48.990;8.346;2022-08-23T12:31:20;100344.22;;;28.60;27.39
26112;BME280;13829;48.990;8.346;2022-08-23T12:34:16;100345.19;;;28.59;26.11
26112;BME280;13829;48.990;8.346;2022-08-23T12:36:59;100338.06;;;28.58;29.12
26112;BME280;13829;48.990;8.346;2022-08-23T12:39:36;100328.88;;;28.73;29.43
26112;BME280;13829;48.990;8.346;2022-08-23T12:42:10;100324.09;;;28.77;29.93
26112;BME280;13829;48.990;8.346;2022-08-23T12:44:44;100328.50;;;28.65;29.65
26112;BME280;13829;48.990;8.346;2022-08-23T12:47:15;100326.78;;;28.64;29.49
26112;BME280;13829;48.990;8.346;2022-08-23T12:49:55;100334.38;;;28.59;30.53
26112;BME280;13829;48.990;8.346;2022-08-23T12:52:25;100328.00;;;28.73;28.14
26112;BME280;13829;48.990;8.346;2022-08-23T12:54:53;100334.97;;;29.01;27.06
26112;BME280;13829;48.990;8.346;2022-08-23T12:57:34;100335.38;;;29.08;26.97
26112;BME280;13829;48.990;8.346;2022-08-23T13:00:15;100328.25;;;28.94;28.03
26112;BME280;13829;48.990;8.346;2022-08-23T13:02:50;100326.53;;;28.93;27.54
26112;BME280;13829;48.990;8.346;2022-08-23T13:05:31;100324.28;;;29.24;26.57
26112;BME280;13829;48.990;8.346;2022-08-23T13:08:03;100324.47;;;29.21;26.34
26112;BME280;13829;48.990;8.346;2022-08-23T13:10:32;100321.25;;;29.16;26.14
26112;BME280;13829;48.990;8.346;2022-08-23T13:13:00;100314.91;;;29.04;27.94
26112;BME280;13829;48.990;8.346;2022-08-23T13:15:45;100309.63;;;29.02;26.72
26112;BME280;13829;48.990;8.346;2022-08-23T13:18:32;100315.00;;;29.15;26.53
26112;BME280;13829;48.990;8.346;2022-08-23T13:21:25;100326.19;;;29.35;26.17